sensor_id;sensor_type;location;lat;lon;timestamp;temperature;humidity
46890;DHT22;32625;51.080;16.970;2023-02-11T00:02:00;0.60;99.90
46890;DHT22;32625;51.080;16.970;2023-02-11T00:04:27;0.60;99.90
46890;DHT22;32625;51.080;16.970;2023-02-11T00:06:54;0.70;99.90
46890;DHT22;32625;51.080;16.970;2023-02-11T00:09:21;0.70;99.90
46890;DHT22;32625;51.080;16.970;2023-02-11T00:11:47;0.70;99.90
46890;DHT22;32625;51.080;16.970;2023-02-11T00:14:14;0.70;99.90
46890;DHT22;32625;51.080;16.970;2023-02-11T00:16:41;0.70;99.90
46890;DHT22;32625;51.080;16.970;2023-02-11T00:19:09;0.80;99.90
46890;DHT22;32625;51.080;16.970;2023-02-11T00:21:35;0.80;99.90
46890;DHT22;32625;51.080;16.970;2023-02-11T00:24:02;0.80;99.90
46890;DHT22;32625;51.080;16.970;2023-02-11T00:26:31;0.80;99.90
46890;DHT22;32625;51.080;16.970;2023-02-11T00:28:58;0.80;99.90
46890;DHT22;32625;51.080;16.970;2023-02-11T00:31:26;0.80;99.90
46890;DHT22;32625;51.080;16.970;2023-02-11T00:33:54;0.80;99.90
46890;DHT22;32625;51.080;16.970;2023-02-11T00:36:22;0.80;99.90
46890;DHT22;32625;51.080;16.970;2023-02-11T00:38:49;0.80;99.90
46890;DHT22;32625;51.080;16.970;2023-02-11T00:41:17;0.80;99.90
46890;DHT22;32625;51.080;16.970;2023-02-11T00:43:44;0.80;99.90
46890;DHT22;32625;51.080;16.970;2023-02-11T00:46:12;0.80;99.90
46890;DHT22;32625;51.080;16.970;2023-02-11T00:48:39;0.80;99.90
46890;DHT22;32625;51.080;16.970;2023-02-11T00:51:06;0.80;99.90
46890;DHT22;32625;51.080;16.970;2023-02-11T00:53:33;0.80;99.90
46890;DHT22;32625;51.080;16.970;2023-02-11T00:56:00;0.70;99.90
46890;DHT22;32625;51.080;16.970;2023-02-11T00:58:27;0.70;99.90
46890;DHT22;32625;51.080;16.970;2023-02-11T01:00:54;0.70;99.90
46890;DHT22;32625;51.080;16.970;2023-02-11T01:03:23;0.70;99.90
46890;DHT22;32625;51.080;16.970;2023-02-11T01:05:50;0.60;99.90
46890;DHT22;32625;51.080;16.970;2023-02-11T01:08:18;0.80;99.90
46890;DHT22;32625;51.080;16.970;2023-02-11T01:10:52;0.50;99.90
46890;DHT22;32625;51.080;16.970;2023-02-11T01:13:19;0.50;99.90
46890;DHT22;32625;51.080;16.970;2023-02-11T01:15:46;0.50;99.90
46890;DHT22;32625;51.080;16.970;2023-02-11T01:18:13;0.50;99.90
46890;DHT22;32625;51.080;16.970;2023-02-11T01:20:41;0.50;99.90
46890;DHT22;32625;51.080;16.970;2023-02-11T01:23:07;0.40;99.90
46890;DHT22;32625;51.080;16.970;2023-02-11T01:25:35;0.50;99.90
46890;DHT22;32625;51.080;16.970;2023-02-11T01:28:02;0.40;99.90
46890;DHT22;32625;51.080;16.970;2023-02-11T01:30:29;0.40;99.90
46890;DHT22;32625;51.080;16.970;2023-02-11T01:32:56;0.50;99.90
46890;DHT22;32625;51.080;16.970;2023-02-11T01:35:23;0.50;99.90
46890;DHT22;32625;51.080;16.970;2023-02-11T01:37:51;0.50;99.90
46890;DHT22;32625;51.080;16.970;2023-02-11T01:40:18;0.50;99.90
46890;DHT22;32625;51.080;16.970;2023-02-11T01:42:45;0.50;99.90
46890;DHT22;32625;51.080;16.970;2023-02-11T01:48:02;0.60;99.90
46890;DHT22;32625;51.080;16.970;2023-02-11T01:50:29;0.60;99.90
46890;DHT22;32625;51.080;16.970;2023-02-11T01:52:56;0.70;99.90
46890;DHT22;32625;51.080;16.970;2023-02-11T01:55:45;0.80;99.90
46890;DHT22;32625;51.080;16.970;2023-02-11T01:58:30;0.80;99.90
46890;DHT22;32625;51.080;16.970;2023-02-11T02:00:58;0.80;99.90
46890;DHT22;32625;51.080;16.970;2023-02-11T02:03:26;0.80;99.90
46890;DHT22;32625;51.080;16.970;2023-02-11T02:05:56;0.80;99.90
46890;DHT22;32625;51.080;16.970;2023-02-11T02:08:33;0.90;99.90
46890;DHT22;32625;51.080;16.970;2023-02-11T02:11:01;0.90;99.90
46890;DHT22;32625;51.080;16.970;2023-02-11T02:13:32;0.90;99.90
46890;DHT22;32625;51.080;16.970;2023-02-11T02:16:04;0.90;99.90
46890;DHT22;32625;51.080;16.970;2023-02-11T02:26:26;1.00;99.90
46890;DHT22;32625;51.080;16.970;2023-02-11T02:29:18;1.00;99.90
46890;DHT22;32625;51.080;16.970;2023-02-11T02:34:41;1.10;99.90
46890;DHT22;32625;51.080;16.970;2023-02-11T02:39:43;1.10;99.90
46890;DHT22;32625;51.080;16.970;2023-02-11T02:42:11;1.10;99.90
46890;DHT22;32625;51.080;16.970;2023-02-11T02:44:38;1.10;99.90
46890;DHT22;32625;51.080;16.970;2023-02-11T02:47:05;1.10;99.90
46890;DHT22;32625;51.080;16.970;2023-02-11T02:49:32;1.20;99.90
46890;DHT22;32625;51.080;16.970;2023-02-11T02:57:17;1.20;99.90
46890;DHT22;32625;51.080;16.970;2023-02-11T03:00:31;1.10;99.90
46890;DHT22;32625;51.080;16.970;2023-02-11T03:02:38;1.00;99.90
46890;DHT22;32625;51.080;16.970;2023-02-11T03:05:15;1.10;99.90
46890;DHT22;32625;51.080;16.970;2023-02-11T03:07:45;1.10;99.90
46890;DHT22;32625;51.080;16.970;2023-02-11T03:10:18;1.00;99.90
46890;DHT22;32625;51.080;16.970;2023-02-11T03:12:47;1.10;99.90
46890;DHT22;32625;51.080;16.970;2023-02-11T03:15:14;1.10;99.90
46890;DHT22;32625;51.080;16.970;2023-02-11T03:17:43;1.10;99.90
46890;DHT22;32625;51.080;16.970;2023-02-11T03:20:14;1.10;99.90
46890;DHT22;32625;51.080;16.970;2023-02-11T03:22:43;1.10;99.90
46890;DHT22;32625;51.080;16.970;2023-02-11T03:25:12;1.10;99.90
46890;DHT22;32625;51.080;16.970;2023-02-11T03:27:46;1.10;99.90
46890;DHT22;32625;51.080;16.970;2023-02-11T03:32:52;1.10;99.90
46890;DHT22;32625;51.080;16.970;2023-02-11T03:35:26;1.10;99.90
46890;DHT22;32625;51.080;16.970;2023-02-11T03:40:28;1.10;99.90
46890;DHT22;32625;51.080;16.970;2023-02-11T03:43:32;1.10;99.90
46890;DHT22;32625;51.080;16.970;2023-02-11T03:45:51;1.10;99.90
46890;DHT22;32625;51.080;16.970;2023-02-11T03:48:21;1.10;99.90
46890;DHT22;32625;51.080;16.970;2023-02-11T03:50:49;1.20;99.90
46890;DHT22;32625;51.080;16.970;2023-02-11T03:53:17;1.20;99.90
46890;DHT22;32625;51.080;16.970;2023-02-11T03:55:46;1.20;99.90
46890;DHT22;32625;51.080;16.970;2023-02-11T03:58:14;1.20;99.90
46890;DHT22;32625;51.080;16.970;2023-02-11T04:00:42;1.20;99.90
46890;DHT22;32625;51.080;16.970;2023-02-11T04:03:09;1.20;99.90
46890;DHT22;32625;51.080;16.970;2023-02-11T04:05:36;1.20;99.90
46890;DHT22;32625;51.080;16.970;2023-02-11T04:08:03;1.20;99.90
46890;DHT22;32625;51.080;16.970;2023-02-11T04:10:31;1.30;99.90
46890;DHT22;32625;51.080;16.970;2023-02-11T04:12:58;1.20;99.90
46890;DHT22;32625;51.080;16.970;2023-02-11T04:15:25;1.20;99.90
46890;DHT22;32625;51.080;16.970;2023-02-11T04:17:52;1.20;99.90
46890;DHT22;32625;51.080;16.970;2023-02-11T04:20:19;1.30;99.90
46890;DHT22;32625;51.080;16.970;2023-02-11T04:22:46;1.20;99.90
46890;DHT22;32625;51.080;16.970;2023-02-11T04:25:12;1.30;99.90
46890;DHT22;32625;51.080;16.970;2023-02-11T04:27:39;1.30;99.90
46890;DHT22;32625;51.080;16.970;2023-02-11T04:30:07;1.30;99.90
46890;DHT22;32625;51.080;16.970;2023-02-11T04:32:34;1.30;99.90
46890;DHT22;32625;51.080;16.970;2023-02-11T04:35:01;1.30;99.90
46890;DHT22;32625;51.080;16.970;2023-02-11T04:37:29;1.30;99.90
46890;DHT22;32625;51.080;16.970;2023-02-11T04:39:56;1.30;99.90
46890;DHT22;32625;51.080;16.970;2023-02-11T04:42:23;1.20;99.90
46890;DHT22;32625;51.080;16.970;2023-02-11T04:44:50;1.30;99.90
46890;DHT22;32625;51.080;16.970;2023-02-11T04:47:17;1.30;99.90
46890;DHT22;32625;51.080;16.970;2023-02-11T04:49:44;1.30;99.90
46890;DHT22;32625;51.080;16.970;2023-02-11T04:52:11;1.20;99.90
46890;DHT22;32625;51.080;16.970;2023-02-11T04:54:38;1.30;99.90
46890;DHT22;32625;51.080;16.970;2023-02-11T04:57:05;1.30;99.90
46890;DHT22;32625;51.080;16.970;2023-02-11T04:59:32;1.30;99.90
46890;DHT22;32625;51.080;16.970;2023-02-11T05:01:59;1.20;99.90
46890;DHT22;32625;51.080;16.970;2023-02-11T05:04:26;1.50;99.90
46890;DHT22;32625;51.080;16.970;2023-02-11T05:06:53;1.30;99.90
46890;DHT22;32625;51.080;16.970;2023-02-11T05:09:23;1.30;99.90
46890;DHT22;32625;51.080;16.970;2023-02-11T05:11:50;1.30;99.90
46890;DHT22;32625;51.080;16.970;2023-02-11T05:14:17;1.30;99.90
46890;DHT22;32625;51.080;16.970;2023-02-11T05:16:44;1.30;99.90
46890;DHT22;32625;51.080;16.970;2023-02-11T05:19:11;1.30;99.90
46890;DHT22;32625;51.080;16.970;2023-02-11T05:21:38;1.30;99.90
46890;DHT22;32625;51.080;16.970;2023-02-11T05:24:13;1.40;99.90
46890;DHT22;32625;51.080;16.970;2023-02-11T05:26:40;1.40;99.90
46890;DHT22;32625;51.080;16.970;2023-02-11T05:29:07;1.40;99.90
46890;DHT22;32625;51.080;16.970;2023-02-11T05:31:34;1.40;99.90
46890;DHT22;32625;51.080;16.970;2023-02-11T05:34:01;1.40;99.90
46890;DHT22;32625;51.080;16.970;2023-02-11T05:36:29;1.50;99.90
46890;DHT22;32625;51.080;16.970;2023-02-11T05:38:59;1.40;99.90
46890;DHT22;32625;51.080;16.970;2023-02-11T05:41:26;1.00;99.90
46890;DHT22;32625;51.080;16.970;2023-02-11T05:43:53;1.40;99.90
46890;DHT22;32625;51.080;16.970;2023-02-11T05:46:19;1.40;99.90
46890;DHT22;32625;51.080;16.970;2023-02-11T05:48:47;1.50;99.90
46890;DHT22;32625;51.080;16.970;2023-02-11T05:51:13;1.50;99.90
46890;DHT22;32625;51.080;16.970;2023-02-11T05:53:40;1.50;99.90
46890;DHT22;32625;51.080;16.970;2023-02-11T05:56:07;1.50;99.90
46890;DHT22;32625;51.080;16.970;2023-02-11T05:58:36;1.50;99.90
46890;DHT22;32625;51.080;16.970;2023-02-11T06:01:04;1.50;99.90
46890;DHT22;32625;51.080;16.970;2023-02-11T06:03:31;1.50;99.90
46890;DHT22;32625;51.080;16.970;2023-02-11T06:05:58;1.60;99.90
46890;DHT22;32625;51.080;16.970;2023-02-11T06:08:25;1.60;99.90
46890;DHT22;32625;51.080;16.970;2023-02-11T06:10:52;1.60;99.90
46890;DHT22;32625;51.080;16.970;2023-02-11T06:13:19;1.60;99.90
46890;DHT22;32625;51.080;16.970;2023-02-11T06:15:54;1.60;99.90
46890;DHT22;32625;51.080;16.970;2023-02-11T06:18:21;1.60;99.90
46890;DHT22;32625;51.080;16.970;2023-02-11T06:20:48;1.60;99.90
46890;DHT22;32625;51.080;16.970;2023-02-11T06:23:15;1.60;99.90
46890;DHT22;32625;51.080;16.970;2023-02-11T06:25:42;1.60;99.90
46890;DHT22;32625;51.080;16.970;2023-02-11T06:28:09;1.70;99.90
46890;DHT22;32625;51.080;16.970;2023-02-11T06:30:36;1.60;99.90
46890;DHT22;32625;51.080;16.970;2023-02-11T06:33:03;1.60;99.90
46890;DHT22;32625;51.080;16.970;2023-02-11T06:35:30;1.70;99.90
46890;DHT22;32625;51.080;16.970;2023-02-11T06:37:59;1.70;99.90
46890;DHT22;32625;51.080;16.970;2023-02-11T06:40:26;1.70;99.90
46890;DHT22;32625;51.080;16.970;2023-02-11T06:42:53;1.70;99.90
46890;DHT22;32625;51.080;16.970;2023-02-11T06:45:19;1.80;99.90
46890;DHT22;32625;51.080;16.970;2023-02-11T06:47:50;1.80;99.90
46890;DHT22;32625;51.080;16.970;2023-02-11T06:50:17;1.80;99.90
46890;DHT22;32625;51.080;16.970;2023-02-11T06:52:44;1.80;99.90
46890;DHT22;32625;51.080;16.970;2023-02-11T06:55:11;1.90;99.90
46890;DHT22;32625;51.080;16.970;2023-02-11T06:57:38;1.90;99.90
46890;DHT22;32625;51.080;16.970;2023-02-11T07:00:05;1.90;99.90
46890;DHT22;32625;51.080;16.970;2023-02-11T07:02:32;1.90;99.90
46890;DHT22;32625;51.080;16.970;2023-02-11T07:04:59;2.00;99.90
46890;DHT22;32625;51.080;16.970;2023-02-11T07:07:26;2.10;99.90
46890;DHT22;32625;51.080;16.970;2023-02-11T07:09:53;2.10;99.90
46890;DHT22;32625;51.080;16.970;2023-02-11T07:12:20;2.10;99.90
46890;DHT22;32625;51.080;16.970;2023-02-11T07:14:47;2.10;99.90
46890;DHT22;32625;51.080;16.970;2023-02-11T07:17:14;2.20;99.90
46890;DHT22;32625;51.080;16.970;2023-02-11T07:19:41;2.20;99.90
46890;DHT22;32625;51.080;16.970;2023-02-11T07:22:08;2.20;99.90
46890;DHT22;32625;51.080;16.970;2023-02-11T07:24:35;2.20;99.90
46890;DHT22;32625;51.080;16.970;2023-02-11T07:27:02;2.20;99.90
46890;DHT22;32625;51.080;16.970;2023-02-11T07:29:30;2.30;99.90
46890;DHT22;32625;51.080;16.970;2023-02-11T07:31:57;2.40;99.90
46890;DHT22;32625;51.080;16.970;2023-02-11T07:34:24;2.30;99.90
46890;DHT22;32625;51.080;16.970;2023-02-11T07:36:51;2.30;99.90
46890;DHT22;32625;51.080;16.970;2023-02-11T07:39:18;2.40;99.90
46890;DHT22;32625;51.080;16.970;2023-02-11T07:41:47;2.40;99.90
46890;DHT22;32625;51.080;16.970;2023-02-11T07:44:15;2.50;99.90
46890;DHT22;32625;51.080;16.970;2023-02-11T07:46:42;2.50;99.90
46890;DHT22;32625;51.080;16.970;2023-02-11T07:49:11;2.50;99.90
46890;DHT22;32625;51.080;16.970;2023-02-11T07:51:38;2.50;99.90
46890;DHT22;32625;51.080;16.970;2023-02-11T07:54:05;2.50;99.90
46890;DHT22;32625;51.080;16.970;2023-02-11T07:56:32;2.50;99.90
46890;DHT22;32625;51.080;16.970;2023-02-11T07:59:00;2.60;99.90
46890;DHT22;32625;51.080;16.970;2023-02-11T08:01:27;2.60;99.90
46890;DHT22;32625;51.080;16.970;2023-02-11T08:03:55;2.60;99.90
46890;DHT22;32625;51.080;16.970;2023-02-11T08:06:23;2.70;99.90
46890;DHT22;32625;51.080;16.970;2023-02-11T08:08:50;2.70;99.90
46890;DHT22;32625;51.080;16.970;2023-02-11T08:11:18;2.70;99.90
46890;DHT22;32625;51.080;16.970;2023-02-11T08:13:46;2.70;99.90
46890;DHT22;32625;51.080;16.970;2023-02-11T08:16:20;2.70;99.90
46890;DHT22;32625;51.080;16.970;2023-02-11T08:18:48;2.80;99.90
46890;DHT22;32625;51.080;16.970;2023-02-11T08:21:15;2.80;99.90
46890;DHT22;32625;51.080;16.970;2023-02-11T08:23:43;2.80;99.90
46890;DHT22;32625;51.080;16.970;2023-02-11T08:26:14;2.80;99.90
46890;DHT22;32625;51.080;16.970;2023-02-11T08:28:42;2.90;99.90
46890;DHT22;32625;51.080;16.970;2023-02-11T08:31:10;2.80;99.90
46890;DHT22;32625;51.080;16.970;2023-02-11T08:33:38;2.90;99.90
46890;DHT22;32625;51.080;16.970;2023-02-11T08:36:10;2.90;99.90
46890;DHT22;32625;51.080;16.970;2023-02-11T08:38:37;2.90;99.90
46890;DHT22;32625;51.080;16.970;2023-02-11T08:41:04;2.90;99.90
46890;DHT22;32625;51.080;16.970;2023-02-11T08:43:31;3.00;99.90
46890;DHT22;32625;51.080;16.970;2023-02-11T08:45:59;3.10;99.90
46890;DHT22;32625;51.080;16.970;2023-02-11T08:48:28;3.00;99.90
46890;DHT22;32625;51.080;16.970;2023-02-11T08:50:56;3.00;99.90
46890;DHT22;32625;51.080;16.970;2023-02-11T08:53:23;3.10;99.90
46890;DHT22;32625;51.080;16.970;2023-02-11T08:55:51;3.20;99.90
46890;DHT22;32625;51.080;16.970;2023-02-11T08:58:19;3.20;99.90
46890;DHT22;32625;51.080;16.970;2023-02-11T09:00:47;3.20;99.90
46890;DHT22;32625;51.080;16.970;2023-02-11T09:03:15;3.20;99.90
46890;DHT22;32625;51.080;16.970;2023-02-11T09:05:43;3.30;99.90
46890;DHT22;32625;51.080;16.970;2023-02-11T09:08:10;3.30;99.90
46890;DHT22;32625;51.080;16.970;2023-02-11T09:10:37;3.40;99.90
46890;DHT22;32625;51.080;16.970;2023-02-11T09:13:04;3.60;99.90
46890;DHT22;32625;51.080;16.970;2023-02-11T09:15:32;3.80;99.90
46890;DHT22;32625;51.080;16.970;2023-02-11T09:17:59;4.00;99.90
46890;DHT22;32625;51.080;16.970;2023-02-11T09:20:26;4.10;99.90
46890;DHT22;32625;51.080;16.970;2023-02-11T09:22:53;4.10;99.90
46890;DHT22;32625;51.080;16.970;2023-02-11T09:25:22;4.10;99.90
46890;DHT22;32625;51.080;16.970;2023-02-11T09:27:49;4.10;99.90
46890;DHT22;32625;51.080;16.970;2023-02-11T09:30:17;4.20;99.90
46890;DHT22;32625;51.080;16.970;2023-02-11T09:32:44;4.20;99.90
46890;DHT22;32625;51.080;16.970;2023-02-11T09:35:11;4.30;99.90
46890;DHT22;32625;51.080;16.970;2023-02-11T09:37:38;4.30;99.90
46890;DHT22;32625;51.080;16.970;2023-02-11T09:40:05;4.40;99.90
46890;DHT22;32625;51.080;16.970;2023-02-11T09:45:02;4.50;99.90
46890;DHT22;32625;51.080;16.970;2023-02-11T09:47:31;4.60;99.90
46890;DHT22;32625;51.080;16.970;2023-02-11T09:50:02;4.60;99.90
46890;DHT22;32625;51.080;16.970;2023-02-11T09:55:55;4.80;99.90
46890;DHT22;32625;51.080;16.970;2023-02-11T09:57:56;4.90;99.90
46890;DHT22;32625;51.080;16.970;2023-02-11T10:03:02;5.00;99.90
46890;DHT22;32625;51.080;16.970;2023-02-11T10:05:39;5.00;99.90
46890;DHT22;32625;51.080;16.970;2023-02-11T10:10:58;5.10;99.90
46890;DHT22;32625;51.080;16.970;2023-02-11T10:24:20;5.00;99.90
46890;DHT22;32625;51.080;16.970;2023-02-11T10:26:47;5.00;99.90
46890;DHT22;32625;51.080;16.970;2023-02-11T10:29:25;5.00;99.90
46890;DHT22;32625;51.080;16.970;2023-02-11T10:31:57;5.10;99.90
46890;DHT22;32625;51.080;16.970;2023-02-11T10:34:25;5.10;99.90
46890;DHT22;32625;51.080;16.970;2023-02-11T10:36:52;5.10;99.90
46890;DHT22;32625;51.080;16.970;2023-02-11T10:39:20;5.10;99.90
46890;DHT22;32625;51.080;16.970;2023-02-11T10:41:56;5.20;99.90
46890;DHT22;32625;51.080;16.970;2023-02-11T10:44:59;5.00;99.90
46890;DHT22;32625;51.080;16.970;2023-02-11T10:47:19;5.20;99.90
46890;DHT22;32625;51.080;16.970;2023-02-11T10:49:47;5.20;99.90
46890;DHT22;32625;51.080;16.970;2023-02-11T10:52:19;5.30;99.90
46890;DHT22;32625;51.080;16.970;2023-02-11T10:55:00;5.20;99.90
46890;DHT22;32625;51.080;16.970;2023-02-11T10:57:29;5.20;99.90
46890;DHT22;32625;51.080;16.970;2023-02-11T10:59:58;5.20;99.90
46890;DHT22;32625;51.080;16.970;2023-02-11T11:02:27;5.10;99.90
46890;DHT22;32625;51.080;16.970;2023-02-11T11:05:02;5.20;99.90
46890;DHT22;32625;51.080;16.970;2023-02-11T11:07:33;5.20;99.90
46890;DHT22;32625;51.080;16.970;2023-02-11T11:10:10;5.10;99.90
46890;DHT22;32625;51.080;16.970;2023-02-11T11:12:51;5.10;99.90
46890;DHT22;32625;51.080;16.970;2023-02-11T11:15:19;5.20;99.90
46890;DHT22;32625;51.080;16.970;2023-02-11T11:17:48;5.20;99.90
46890;DHT22;32625;51.080;16.970;2023-02-11T11:20:20;5.20;99.90
46890;DHT22;32625;51.080;16.970;2023-02-11T11:22:48;5.20;99.90
46890;DHT22;32625;51.080;16.970;2023-02-11T11:25:22;5.20;99.90
46890;DHT22;32625;51.080;16.970;2023-02-11T11:27:50;5.20;99.90
46890;DHT22;32625;51.080;16.970;2023-02-11T11:30:18;5.20;99.90
46890;DHT22;32625;51.080;16.970;2023-02-11T11:32:45;5.30;99.90
46890;DHT22;32625;51.080;16.970;2023-02-11T11:35:28;5.30;99.90
46890;DHT22;32625;51.080;16.970;2023-02-11T11:37:57;5.30;99.90
46890;DHT22;32625;51.080;16.970;2023-02-11T11:40:28;5.40;99.90
46890;DHT22;32625;51.080;16.970;2023-02-11T11:45:29;5.40;99.90
46890;DHT22;32625;51.080;16.970;2023-02-11T11:48:12;5.40;99.90
46890;DHT22;32625;51.080;16.970;2023-02-11T11:50:44;5.50;99.90
46890;DHT22;32625;51.080;16.970;2023-02-11T11:53:21;5.60;99.90
46890;DHT22;32625;51.080;16.970;2023-02-11T11:56:12;5.30;99.90
46890;DHT22;32625;51.080;16.970;2023-02-11T11:58:37;5.60;99.90
46890;DHT22;32625;51.080;16.970;2023-02-11T12:01:27;5.50;99.90
46890;DHT22;32625;51.080;16.970;2023-02-11T12:04:12;5.50;99.90
46890;DHT22;32625;51.080;16.970;2023-02-11T12:15:03;5.50;99.90
46890;DHT22;32625;51.080;16.970;2023-02-11T12:17:43;5.50;99.90
46890;DHT22;32625;51.080;16.970;2023-02-11T12:30:48;5.40;99.90
46890;DHT22;32625;51.080;16.970;2023-02-11T12:38:20;5.50;99.90
46890;DHT22;32625;51.080;16.970;2023-02-11T12:45:55;5.60;99.90
46890;DHT22;32625;51.080;16.970;2023-02-11T12:48:34;5.60;99.90
46890;DHT22;32625;51.080;16.970;2023-02-11T12:53:53;5.50;99.90
46890;DHT22;32625;51.080;16.970;2023-02-11T12:59:13;5.50;99.90
46890;DHT22;32625;51.080;16.970;2023-02-11T13:01:43;5.50;99.90
46890;DHT22;32625;51.080;16.970;2023-02-11T13:06:54;5.50;99.90
46890;DHT22;32625;51.080;16.970;2023-02-11T13:09:28;5.50;99.90
46890;DHT22;32625;51.080;16.970;2023-02-11T13:11:57;5.60;99.90
46890;DHT22;32625;51.080;16.970;2023-02-11T13:14:46;5.60;99.90
46890;DHT22;32625;51.080;16.970;2023-02-11T13:17:20;5.60;99.90
46890;DHT22;32625;51.080;16.970;2023-02-11T13:19:49;5.60;99.90
46890;DHT22;32625;51.080;16.970;2023-02-11T13:22:22;5.60;99.90
46890;DHT22;32625;51.080;16.970;2023-02-11T13:24:51;5.80;99.90
46890;DHT22;32625;51.080;16.970;2023-02-11T13:35:28;5.60;99.90
46890;DHT22;32625;51.080;16.970;2023-02-11T13:37:56;5.60;99.90
46890;DHT22;32625;51.080;16.970;2023-02-11T13:40:25;5.60;99.90
46890;DHT22;32625;51.080;16.970;2023-02-11T13:42:56;5.60;99.90
46890;DHT22;32625;51.080;16.970;2023-02-11T13:47:59;5.60;99.90
46890;DHT22;32625;51.080;16.970;2023-02-11T13:50:27;5.60;99.90
46890;DHT22;32625;51.080;16.970;2023-02-11T13:52:56;5.60;99.90
46890;DHT22;32625;51.080;16.970;2023-02-11T13:55:24;5.60;99.90
46890;DHT22;32625;51.080;16.970;2023-02-11T14:03:32;5.60;99.90
46890;DHT22;32625;51.080;16.970;2023-02-11T14:06:12;5.50;99.90
46890;DHT22;32625;51.080;16.970;2023-02-11T14:09:07;5.50;99.90
46890;DHT22;32625;51.080;16.970;2023-02-11T14:14:14;5.50;99.90
46890;DHT22;32625;51.080;16.970;2023-02-11T14:25:00;5.60;99.90
46890;DHT22;32625;51.080;16.970;2023-02-11T14:28:02;5.50;99.90
46890;DHT22;32625;51.080;16.970;2023-02-11T14:30:31;5.50;99.90
46890;DHT22;32625;51.080;16.970;2023-02-11T14:35:33;5.50;99.90
46890;DHT22;32625;51.080;16.970;2023-02-11T14:40:31;5.40;99.90
46890;DHT22;32625;51.080;16.970;2023-02-11T14:43:09;5.50;99.90
46890;DHT22;32625;51.080;16.970;2023-02-11T14:45:38;5.50;99.90
46890;DHT22;32625;51.080;16.970;2023-02-11T14:48:06;5.40;99.90
46890;DHT22;32625;51.080;16.970;2023-02-11T14:53:10;5.40;99.90
46890;DHT22;32625;51.080;16.970;2023-02-11T14:55:39;5.40;99.90
46890;DHT22;32625;51.080;16.970;2023-02-11T14:58:18;5.40;99.90
46890;DHT22;32625;51.080;16.970;2023-02-11T15:00:50;5.40;99.90
46890;DHT22;32625;51.080;16.970;2023-02-11T15:06:15;5.30;99.90
46890;DHT22;32625;51.080;16.970;2023-02-11T15:08:41;5.30;99.90
46890;DHT22;32625;51.080;16.970;2023-02-11T15:11:09;5.20;99.90
46890;DHT22;32625;51.080;16.970;2023-02-11T15:13:37;5.20;99.90
46890;DHT22;32625;51.080;16.970;2023-02-11T15:16:05;5.10;99.90
46890;DHT22;32625;51.080;16.970;2023-02-11T15:18:36;5.10;99.90
46890;DHT22;32625;51.080;16.970;2023-02-11T15:21:04;5.10;99.90
46890;DHT22;32625;51.080;16.970;2023-02-11T15:23:32;5.00;99.90
46890;DHT22;32625;51.080;16.970;2023-02-11T15:25:59;4.90;99.90
46890;DHT22;32625;51.080;16.970;2023-02-11T15:28:32;4.90;99.90
46890;DHT22;32625;51.080;16.970;2023-02-11T15:31:15;4.90;99.90
46890;DHT22;32625;51.080;16.970;2023-02-11T15:33:42;4.90;99.90
46890;DHT22;32625;51.080;16.970;2023-02-11T15:36:10;4.90;99.90
46890;DHT22;32625;51.080;16.970;2023-02-11T15:38:37;4.80;99.90
46890;DHT22;32625;51.080;16.970;2023-02-11T15:41:04;4.80;99.90
46890;DHT22;32625;51.080;16.970;2023-02-11T15:43:39;4.80;99.90
46890;DHT22;32625;51.080;16.970;2023-02-11T15:46:07;4.80;99.90
46890;DHT22;32625;51.080;16.970;2023-02-11T15:48:36;4.80;99.90
46890;DHT22;32625;51.080;16.970;2023-02-11T15:51:07;4.70;99.90
46890;DHT22;32625;51.080;16.970;2023-02-11T15:53:41;4.70;99.90
46890;DHT22;32625;51.080;16.970;2023-02-11T15:56:12;4.70;99.90
46890;DHT22;32625;51.080;16.970;2023-02-11T15:58:42;4.80;99.90
46890;DHT22;32625;51.080;16.970;2023-02-11T16:01:09;4.80;99.90
46890;DHT22;32625;51.080;16.970;2023-02-11T16:03:37;4.70;99.90
46890;DHT22;32625;51.080;16.970;2023-02-11T16:08:42;4.70;99.90
46890;DHT22;32625;51.080;16.970;2023-02-11T16:11:24;4.70;99.90
46890;DHT22;32625;51.080;16.970;2023-02-11T16:13:51;4.70;99.90
46890;DHT22;32625;51.080;16.970;2023-02-11T16:16:23;4.70;99.90
46890;DHT22;32625;51.080;16.970;2023-02-11T16:18:51;4.70;99.90
46890;DHT22;32625;51.080;16.970;2023-02-11T16:21:32;4.60;99.90
46890;DHT22;32625;51.080;16.970;2023-02-11T16:24:16;4.60;99.90
46890;DHT22;32625;51.080;16.970;2023-02-11T16:26:45;4.60;99.90
46890;DHT22;32625;51.080;16.970;2023-02-11T16:29:14;4.50;99.90
46890;DHT22;32625;51.080;16.970;2023-02-11T16:31:42;4.60;99.90
46890;DHT22;32625;51.080;16.970;2023-02-11T16:34:14;4.60;99.90
46890;DHT22;32625;51.080;16.970;2023-02-11T16:36:41;4.60;99.90
46890;DHT22;32625;51.080;16.970;2023-02-11T16:39:08;4.60;99.90
46890;DHT22;32625;51.080;16.970;2023-02-11T16:41:36;4.60;99.90
46890;DHT22;32625;51.080;16.970;2023-02-11T16:44:03;4.60;99.90
46890;DHT22;32625;51.080;16.970;2023-02-11T16:46:30;4.60;99.90
46890;DHT22;32625;51.080;16.970;2023-02-11T16:48:57;4.60;99.90
46890;DHT22;32625;51.080;16.970;2023-02-11T16:51:29;4.60;99.90
46890;DHT22;32625;51.080;16.970;2023-02-11T16:53:56;4.60;99.90
46890;DHT22;32625;51.080;16.970;2023-02-11T16:56:23;4.70;99.90
46890;DHT22;32625;51.080;16.970;2023-02-11T16:58:50;4.70;99.90
46890;DHT22;32625;51.080;16.970;2023-02-11T17:01:17;4.70;99.90
46890;DHT22;32625;51.080;16.970;2023-02-11T17:03:44;4.70;99.90
46890;DHT22;32625;51.080;16.970;2023-02-11T17:06:11;4.70;99.90
46890;DHT22;32625;51.080;16.970;2023-02-11T17:08:39;4.80;99.90
46890;DHT22;32625;51.080;16.970;2023-02-11T17:11:07;4.80;99.90
46890;DHT22;32625;51.080;16.970;2023-02-11T17:13:34;4.80;99.90
46890;DHT22;32625;51.080;16.970;2023-02-11T17:16:02;4.60;99.90
46890;DHT22;32625;51.080;16.970;2023-02-11T17:18:29;4.80;99.90
46890;DHT22;32625;51.080;16.970;2023-02-11T17:20:56;4.80;99.90
46890;DHT22;32625;51.080;16.970;2023-02-11T17:23:22;4.80;99.90
46890;DHT22;32625;51.080;16.970;2023-02-11T17:25:55;4.80;99.90
46890;DHT22;32625;51.080;16.970;2023-02-11T17:28:22;4.90;99.90
46890;DHT22;32625;51.080;16.970;2023-02-11T17:30:49;4.80;99.90
46890;DHT22;32625;51.080;16.970;2023-02-11T17:33:16;4.90;99.90
46890;DHT22;32625;51.080;16.970;2023-02-11T17:35:44;4.90;99.90
46890;DHT22;32625;51.080;16.970;2023-02-11T17:38:11;4.90;99.90
46890;DHT22;32625;51.080;16.970;2023-02-11T17:40:38;4.90;99.90
46890;DHT22;32625;51.080;16.970;2023-02-11T17:43:05;4.90;99.90
46890;DHT22;32625;51.080;16.970;2023-02-11T17:45:32;4.90;99.90
46890;DHT22;32625;51.080;16.970;2023-02-11T17:48:00;4.90;99.90
46890;DHT22;32625;51.080;16.970;2023-02-11T17:50:27;4.90;99.90
46890;DHT22;32625;51.080;16.970;2023-02-11T17:52:55;4.90;99.90